createdAt,value
2022-10-20T00:04:29.698Z,102108.72
2022-10-20T00:09:32.509Z,102114.50
2022-10-20T00:14:35.345Z,102108.72
2022-10-20T00:19:39.440Z,102095.09
2022-10-20T00:24:42.341Z,102094.31
2022-10-20T00:29:45.069Z,102094.16
2022-10-20T00:34:49.181Z,102098.66
2022-10-20T00:39:51.981Z,102085.41
2022-10-20T00:44:57.370Z,102079.31
2022-10-20T00:50:07.002Z,102073.53
2022-10-20T00:55:11.611Z,102065.81
2022-10-20T01:00:15.820Z,102064.31
2022-10-20T01:05:20.718Z,102056.69
2022-10-20T01:10:27.857Z,102063.81
2022-10-20T01:15:38.488Z,102049.41
2022-10-20T01:21:05.305Z,102040.63
2022-10-20T01:26:31.537Z,102034.91
2022-10-20T01:31:43.403Z,102040.13
2022-10-20T01:36:52.266Z,102017.88
2022-10-20T01:41:59.482Z,102014.13
2022-10-20T01:47:04.863Z,102000.00
2022-10-20T01:52:07.612Z,101999.56
2022-10-20T01:57:26.873Z,101995.59
2022-10-20T02:02:45.136Z,101996.97
2022-10-20T02:07:47.891Z,101980.91
2022-10-20T02:12:54.940Z,101971.31
2022-10-20T02:18:06.754Z,101962.84
2022-10-20T02:23:10.417Z,101961.03
2022-10-20T02:28:16.328Z,101950.72
2022-10-20T02:33:21.858Z,101950.28
2022-10-20T02:38:24.846Z,101944.94
2022-10-20T02:43:27.617Z,101940.09
2022-10-20T02:48:31.779Z,101942.50
2022-10-20T02:53:34.552Z,101947.84
2022-10-20T02:58:37.337Z,101938.88
2022-10-20T03:03:41.482Z,101938.84
2022-10-20T03:08:45.510Z,101933.84
2022-10-20T03:13:48.361Z,101929.47
2022-10-20T03:18:52.688Z,101926.56
2022-10-20T03:23:55.972Z,101930.19
2022-10-20T03:28:58.857Z,101916.06
2022-10-20T03:34:03.065Z,101913.06
2022-10-20T03:39:05.873Z,101907.72
2022-10-20T03:44:08.893Z,101904.28
2022-10-20T03:49:13.206Z,101900.31
2022-10-20T03:54:16.009Z,101908.28
2022-10-20T03:59:18.887Z,101900.44
2022-10-20T04:04:23.209Z,101892.53
2022-10-20T04:09:26.113Z,101893.47
2022-10-20T04:14:29.282Z,101891.47
2022-10-20T04:19:33.479Z,101883.63
2022-10-20T04:24:36.373Z,101876.91
2022-10-20T04:29:39.329Z,101886.00
2022-10-20T04:34:43.469Z,101873.16
2022-10-20T04:39:46.235Z,101869.69
2022-10-20T04:44:49.020Z,101859.09
2022-10-20T04:49:53.131Z,101847.44
2022-10-20T04:54:55.920Z,101838.47
2022-10-20T04:59:58.734Z,101836.50
2022-10-20T05:05:02.835Z,101828.63
2022-10-20T05:10:07.195Z,101824.25
2022-10-20T05:15:10.540Z,101797.75
2022-10-20T05:20:14.956Z,101793.06
2022-10-20T05:25:35.625Z,101783.34
2022-10-20T05:30:39.537Z,101772.94
2022-10-20T05:35:43.828Z,101777.91
2022-10-20T05:40:46.631Z,101762.47
2022-10-20T05:45:54.945Z,101748.13
2022-10-20T05:51:10.681Z,101762.03
2022-10-20T05:56:18.975Z,101754.66
2022-10-20T06:01:24.859Z,101756.47
2022-10-20T06:06:31.092Z,101758.28
2022-10-20T06:11:37.109Z,101747.13
2022-10-20T06:16:41.982Z,101747.63
2022-10-20T06:21:47.433Z,101749.59
2022-10-20T06:26:52.266Z,101765.22
2022-10-20T06:31:56.166Z,101766.00
2022-10-20T06:37:00.301Z,101766.75
2022-10-20T06:42:09.539Z,101757.81
2022-10-20T06:47:20.910Z,101755.69
2022-10-20T06:52:25.079Z,101759.59
2022-10-20T06:57:27.795Z,101757.06
2022-10-20T07:02:30.551Z,101753.78
2022-10-20T07:12:42.624Z,101754.59
2022-10-20T07:17:45.648Z,101749.34
2022-10-20T07:22:49.960Z,101753.16
2022-10-20T07:27:52.727Z,101732.28
2022-10-20T07:32:55.550Z,101711.06
2022-10-20T07:37:59.818Z,101690.09
2022-10-20T07:43:02.572Z,101689.13
2022-10-20T07:48:07.074Z,101694.16
2022-10-20T07:53:11.375Z,101694.31
2022-10-20T07:58:14.135Z,101683.03
2022-10-20T08:03:16.926Z,101680.53
2022-10-20T08:08:21.111Z,101670.81
2022-10-20T08:13:23.862Z,101656.38
2022-10-20T08:18:27.888Z,101644.53
2022-10-20T08:23:32.250Z,101630.19
2022-10-20T08:28:35.268Z,101615.44
2022-10-20T08:33:39.824Z,101597.91
2022-10-20T08:38:44.694Z,101603.88
2022-10-20T08:43:49.756Z,101589.94
2022-10-20T08:48:52.850Z,101586.94
2022-10-20T08:53:59.819Z,101599.22
2022-10-20T08:59:04.306Z,101580.69
2022-10-20T09:04:16.885Z,101571.63
2022-10-20T09:09:23.480Z,101570.38
2022-10-20T09:14:35.022Z,101568.78
2022-10-20T09:19:37.802Z,101554.19
2022-10-20T09:24:43.799Z,101549.19
2022-10-20T09:29:47.036Z,101549.31
2022-10-20T09:34:49.831Z,101527.72
2022-10-20T09:39:57.188Z,101544.50
2022-10-20T09:45:03.509Z,101551.38
2022-10-20T09:50:09.435Z,101562.88
2022-10-20T09:55:26.385Z,101541.06
2022-10-20T10:00:37.355Z,101549.63
2022-10-20T10:05:40.842Z,101535.94
2022-10-20T10:10:47.231Z,101535.09
2022-10-20T10:16:01.895Z,101527.00
2022-10-20T10:21:07.846Z,101511.88
2022-10-20T10:26:41.846Z,101484.19
2022-10-20T10:31:52.284Z,101468.59
2022-10-20T10:36:55.242Z,101456.25
2022-10-20T10:42:18.680Z,101454.81
2022-10-20T10:47:34.266Z,101455.09
2022-10-20T10:52:52.155Z,101452.13
2022-10-20T10:58:08.342Z,101447.88
2022-10-20T11:03:30.891Z,101414.66
2022-10-20T11:08:44.907Z,101413.00
2022-10-20T11:13:56.820Z,101396.09
2022-10-20T11:19:20.473Z,101386.91
2022-10-20T11:24:38.243Z,101377.84
2022-10-20T11:29:46.485Z,101371.75
2022-10-20T11:34:57.901Z,101361.66
2022-10-20T11:40:14.708Z,101355.22
2022-10-20T11:45:33.434Z,101351.72
2022-10-20T11:50:36.818Z,101347.44
2022-10-20T11:55:52.163Z,101346.53
2022-10-20T12:01:09.257Z,101325.56
2022-10-20T12:06:49.596Z,101317.59
2022-10-20T12:11:57.382Z,101317.13
2022-10-20T12:17:16.252Z,101279.63
2022-10-20T12:22:39.329Z,101261.81
2022-10-20T12:27:42.474Z,101246.16
2022-10-20T12:33:17.540Z,101230.63
2022-10-20T12:38:23.374Z,101240.69
2022-10-20T12:43:36.483Z,101226.03
2022-10-20T12:48:47.020Z,101209.38
2022-10-20T12:53:57.640Z,101200.63
2022-10-20T12:59:38.132Z,101204.56
2022-10-20T13:04:56.387Z,101190.78
2022-10-20T13:10:01.834Z,101181.47
2022-10-20T13:15:14.489Z,101176.31
2022-10-20T13:20:28.939Z,101199.28
2022-10-20T13:25:39.110Z,101183.00
2022-10-20T13:30:59.451Z,101162.03
2022-10-20T13:36:11.473Z,101149.75
2022-10-20T13:41:21.038Z,101159.34
2022-10-20T13:46:39.175Z,101161.53
2022-10-20T13:51:48.119Z,101133.03
2022-10-20T13:56:51.870Z,101130.44
2022-10-20T14:01:57.127Z,101133.94
2022-10-20T14:07:05.767Z,101124.59
2022-10-20T14:12:13.878Z,101122.03
2022-10-20T14:17:22.042Z,101105.09
2022-10-20T14:22:26.381Z,101107.38
2022-10-20T14:27:31.265Z,101105.00
2022-10-20T14:32:41.181Z,101111.38
2022-10-20T14:37:52.692Z,101107.78
2022-10-20T14:43:00.022Z,101098.00
2022-10-20T14:48:03.246Z,101087.53
2022-10-20T14:53:30.883Z,101094.72
2022-10-20T14:58:37.075Z,101093.81
2022-10-20T15:03:39.937Z,101089.19
2022-10-20T15:08:53.610Z,101105.16
2022-10-20T15:13:59.030Z,101105.88
2022-10-20T15:19:28.356Z,101106.72
2022-10-20T15:24:32.572Z,101094.34
2022-10-20T15:29:35.515Z,101097.66
2022-10-20T15:34:39.196Z,101086.38
2022-10-20T15:39:44.639Z,101082.56
2022-10-20T15:44:47.480Z,101084.56
2022-10-20T15:49:52.443Z,101087.84
2022-10-20T15:54:56.696Z,101092.09
2022-10-20T15:59:59.636Z,101093.78
2022-10-20T16:05:02.573Z,101094.13
2022-10-20T16:10:08.576Z,101096.66
2022-10-20T16:15:12.763Z,101099.69
2022-10-20T16:20:16.675Z,101100.13
2022-10-20T16:25:21.300Z,101094.06
2022-10-20T16:30:31.610Z,101089.56
2022-10-20T16:36:04.083Z,101098.03
2022-10-20T16:41:11.109Z,101077.13
2022-10-20T16:46:16.773Z,101076.56
2022-10-20T16:51:24.497Z,101072.44
2022-10-20T16:56:53.796Z,101076.50
2022-10-20T17:01:58.100Z,101057.34
2022-10-20T17:07:01.050Z,101040.19
2022-10-20T17:12:06.417Z,101042.13
2022-10-20T17:17:09.623Z,101038.81
2022-10-20T17:22:12.671Z,101028.47
2022-10-20T17:27:17.059Z,101022.66
2022-10-20T17:32:25.891Z,101024.88
2022-10-20T17:38:23.594Z,101006.63
2022-10-20T17:56:31.746Z,100977.50
2022-10-20T18:02:01.552Z,100980.19
2022-10-20T18:07:04.510Z,100979.28
2022-10-20T18:12:09.403Z,100972.47
2022-10-20T18:17:12.502Z,100980.84
2022-10-20T18:22:15.767Z,100984.88
2022-10-20T18:27:20.235Z,100965.31
2022-10-20T18:32:23.358Z,100967.78
2022-10-20T18:37:26.561Z,100961.16
2022-10-20T18:42:31.317Z,100953.03
2022-10-20T18:47:34.870Z,100959.94
2022-10-20T18:52:38.036Z,100945.69
2022-10-20T18:57:42.396Z,100942.25
2022-10-20T19:02:48.274Z,100930.28
2022-10-20T19:07:54.107Z,100931.06
2022-10-20T19:12:58.464Z,100919.47
2022-10-20T19:18:01.853Z,100919.84
2022-10-20T19:23:05.050Z,100912.44
2022-10-20T19:28:12.625Z,100919.84
2022-10-20T19:33:15.888Z,100928.13
2022-10-20T19:38:19.540Z,100893.09
2022-10-20T19:43:24.770Z,100899.59
2022-10-20T19:48:30.697Z,100889.84
2022-10-20T19:54:12.390Z,100900.16
2022-10-20T19:59:17.680Z,100895.97
2022-10-20T20:04:21.065Z,100895.06
2022-10-20T20:09:24.011Z,100898.66
2022-10-20T20:14:28.170Z,100886.94
2022-10-20T20:19:31.077Z,100866.38
2022-10-20T20:24:34.655Z,100851.97
2022-10-20T20:29:39.092Z,100854.13
2022-10-20T20:34:41.884Z,100832.41
2022-10-20T20:39:44.780Z,100842.03
2022-10-20T20:44:48.976Z,100853.38
2022-10-20T20:49:51.804Z,100868.22
2022-10-20T20:54:54.690Z,100861.69
2022-10-20T20:59:58.850Z,100855.25
2022-10-20T21:05:01.744Z,100842.31
2022-10-20T21:10:04.924Z,100831.31
2022-10-20T21:15:10.148Z,100818.25
2022-10-20T21:20:12.950Z,100826.81
2022-10-20T21:25:15.879Z,100836.28
2022-10-20T21:30:20.130Z,100842.53
2022-10-20T21:35:23.014Z,100840.09
2022-10-20T21:40:25.786Z,100837.81
2022-10-20T21:45:29.947Z,100825.03
2022-10-20T21:50:36.318Z,100808.41
2022-10-20T21:55:39.133Z,100811.47
2022-10-20T22:00:43.519Z,100800.22
2022-10-20T22:05:46.479Z,100812.81
2022-10-20T22:10:49.203Z,100814.28
2022-10-20T22:15:53.291Z,100813.03
2022-10-20T22:20:56.053Z,100809.09
2022-10-20T22:25:58.993Z,100810.22
2022-10-20T22:31:04.935Z,100812.00
2022-10-20T22:36:08.069Z,100816.53
2022-10-20T22:41:11.618Z,100819.94
2022-10-20T22:46:16.791Z,100821.25
2022-10-20T22:51:19.627Z,100812.28
2022-10-20T22:56:23.512Z,100808.69
2022-10-20T23:01:29.785Z,100814.75
2022-10-20T23:06:32.657Z,100809.94
2022-10-20T23:11:36.496Z,100827.66
2022-10-20T23:16:40.725Z,100831.38
2022-10-20T23:21:43.673Z,100821.16
2022-10-20T23:26:46.599Z,100818.25
2022-10-20T23:31:50.819Z,100824.66
2022-10-20T23:36:53.844Z,100832.97
2022-10-20T23:41:56.957Z,100829.34
2022-10-20T23:47:01.200Z,100810.16
2022-10-20T23:52:04.137Z,100817.22
2022-10-20T23:57:07.043Z,100810.25
